Silver Orla — V7FI9 — position and weather

sailwx.info

Track history (hours):
 
Tides and Currents Weather Stations Pressure Air Temp Water Temp Dewpoint Dewpoint Depression Visibility Wind Speed Wind Dir Waves Ship Positions

Silver Orla

Last reported at 2018-Jan-09 01:56 UTC. Time now 2018-Jan-23 19:45 UTC.
Position S 24°24' W 046°07'.
Warning: this ship's position is 14 days out of date.

Length 183 m; draft 8.2 m.

Type: Tanker. MMSI: 538005601.

Date/timePositionNaut miles runAvg speedWind from/ knotsBaromVisibWave heightAir tempDewpointWater temp
2018-Jan-09 01:56S 24°24' W 046°07'511.2
2018-Jan-09 01:30S 24°24' W 046°12'611.8
2018-Jan-09 01:00S 24°20' W 046°17'611.3
2018-Jan-09 00:30S 24°16' W 046°21'611.6
2018-Jan-09 00:00S 24°10' W 046°22'510.8
2018-Jan-08 23:30S 24°05' W 046°22'5 9.0
2018-Jan-08 23:00S 24°00' W 046°20'3 6.5
2018-Jan-08 22:30S 23°59' W 046°17'  
2018-Jan-03 03:17S 23°57' W 046°18'2 7.7
2018-Jan-03 03:00S 23°59' W 046°17'4 7.1
2018-Jan-03 02:30S 24°01' W 046°21'3 5.8
2018-Jan-03 02:00S 24°04' W 046°20'1 2.5
2018-Jan-03 01:26S 24°05' W 046°19'0 0.0
2018-Jan-03 00:56S 24°05' W 046°19'0 0.1
2018-Jan-03 00:26S 24°05' W 046°19'0 0.0
2018-Jan-02 23:47S 24°05' W 046°19'0 0.1
2018-Jan-02 23:29S 24°05' W 046°19'0 0.0
2018-Jan-02 22:59S 24°05' W 046°19'0 0.1
2018-Jan-02 22:26S 24°05' W 046°19'0 0.0
2018-Jan-02 21:53S 24°05' W 046°19'0 0.0
2018-Jan-02 21:26S 24°05' W 046°19'0 0.0
2018-Jan-02 20:56S 24°05' W 046°19'0 0.0
2018-Jan-02 20:20S 24°05' W 046°19'0 0.0
2018-Jan-02 19:56S 24°05' W 046°19'0 0.0
2018-Jan-02 19:29S 24°05' W 046°19'0 0.0
2018-Jan-02 18:50S 24°05' W 046°19'0 0.0
2018-Jan-02 18:26S 24°05' W 046°19'0 0.0
2018-Jan-02 17:59S 24°05' W 046°19'0 0.0
2018-Jan-02 17:29S 24°05' W 046°19'0 0.1
2018-Jan-02 16:47S 24°05' W 046°19'0 0.0
2018-Jan-02 16:29S 24°05' W 046°19'0 0.0
2018-Jan-02 15:56S 24°05' W 046°19'0 0.0
2018-Jan-02 15:26S 24°05' W 046°19'0 0.1
2018-Jan-02 14:56S 24°05' W 046°19'0 0.0
2018-Jan-02 14:26S 24°05' W 046°19'0 0.0
2018-Jan-02 13:50S 24°05' W 046°19'0 0.0
2018-Jan-02 13:29S 24°05' W 046°19'0 0.0
2018-Jan-02 12:53S 24°05' W 046°19'0 0.1
2018-Jan-02 12:26S 24°05' W 046°19'0 0.1
2018-Jan-02 11:59S 24°05' W 046°19'0 0.0
2018-Jan-02 11:26S 24°05' W 046°19'0 0.0
2018-Jan-02 10:53S 24°05' W 046°19'0 0.0
2018-Jan-02 10:26S 24°05' W 046°19'0 0.0
2018-Jan-02 09:59S 24°05' W 046°19'0 0.0
2018-Jan-02 09:29S 24°05' W 046°19'0 0.0
2018-Jan-02 08:26S 24°05' W 046°19'0 0.0
2018-Jan-02 07:59S 24°05' W 046°19'0 0.0
2018-Jan-02 07:26S 24°05' W 046°19'0 0.1
2018-Jan-02 06:53S 24°05' W 046°19'0 0.1
2018-Jan-02 06:26S 24°05' W 046°19'0 0.2
2018-Jan-02 05:59S 24°05' W 046°19'0 0.1
2018-Jan-02 05:26S 24°05' W 046°19'0 0.0
2018-Jan-02 04:26S 24°05' W 046°19'0 0.0
2018-Jan-02 03:56S 24°05' W 046°19'0 0.0
2018-Jan-02 03:26S 24°05' W 046°19'0 0.0
2018-Jan-02 02:50S 24°05' W 046°19'0 0.0
2018-Jan-02 02:26S 24°05' W 046°19'0 0.0
2018-Jan-02 01:59S 24°05' W 046°19'0 0.0
2018-Jan-02 01:29S 24°05' W 046°19'0 0.1
2018-Jan-02 00:56S 24°05' W 046°19'0 0.0
2018-Jan-02 00:26S 24°05' W 046°19'0 0.1
2018-Jan-01 23:56S 24°05' W 046°19'0 0.0
2018-Jan-01 23:29S 24°05' W 046°19'0 0.0
2018-Jan-01 22:56S 24°05' W 046°19'0 0.0
2018-Jan-01 22:26S 24°05' W 046°19'0 0.0
2018-Jan-01 21:50S 24°05' W 046°19'0 0.1
2018-Jan-01 21:26S 24°05' W 046°19'0 0.0
2018-Jan-01 20:50S 24°05' W 046°19'0 0.1
2018-Jan-01 20:26S 24°05' W 046°19'0 0.0
2018-Jan-01 19:56S 24°05' W 046°19'0 0.0
2018-Jan-01 19:26S 24°05' W 046°19'0 0.1
2018-Jan-01 18:50S 24°05' W 046°19'0 0.0
2018-Jan-01 18:20S 24°05' W 046°19'0 0.0
2018-Jan-01 17:59S 24°05' W 046°19'0 0.0
2018-Jan-01 17:26S 24°05' W 046°19'0 0.0
2018-Jan-01 14:44S 24°05' W 046°19'0 0.0
2018-Jan-01 14:26S 24°05' W 046°19'0 0.0
2018-Jan-01 13:56S 24°05' W 046°19'0 0.0
2018-Jan-01 13:29S 24°05' W 046°19'0 0.0
2018-Jan-01 12:59S 24°05' W 046°19'0 0.0
2018-Jan-01 11:59S 24°05' W 046°19'0 0.0
2018-Jan-01 11:26S 24°05' W 046°19'0 0.0
2018-Jan-01 10:56S 24°05' W 046°19'0 0.0
2018-Jan-01 10:26S 24°05' W 046°19'0 0.0
2018-Jan-01 09:56S 24°05' W 046°19'0 0.0
2018-Jan-01 09:29S 24°05' W 046°19'0 0.0
2018-Jan-01 08:29S 24°05' W 046°19'0 0.0
2018-Jan-01 07:56S 24°05' W 046°19'0 0.0
2018-Jan-01 07:23S 24°05' W 046°19'0 0.0
2018-Jan-01 06:59S 24°05' W 046°19'0 0.1
2018-Jan-01 05:59S 24°05' W 046°19'0 0.1
2018-Jan-01 05:26S 24°05' W 046°19'0 0.0
2018-Jan-01 04:56S 24°05' W 046°19'0 0.1
2018-Jan-01 03:50S 24°05' W 046°19'0 0.1
2018-Jan-01 03:29S 24°05' W 046°19'0 0.0
2018-Jan-01 02:56S 24°05' W 046°19'0 0.0
2018-Jan-01 02:26S 24°05' W 046°19'0 0.0
2018-Jan-01 01:59S 24°05' W 046°19'0 0.0
2018-Jan-01 01:26S 24°05' W 046°19'0 0.0
2018-Jan-01 00:26S 24°05' W 046°19'0 0.0
2017-Dec-31 20:59S 24°05' W 046°19'0 0.1
2017-Dec-31 20:26S 24°05' W 046°19'0 0.0
2017-Dec-31 19:47S 24°05' W 046°19'0 0.0
2017-Dec-31 19:29S 24°05' W 046°19'0 0.1
2017-Dec-31 18:56S 24°05' W 046°19'0 0.0
2017-Dec-31 18:26S 24°05' W 046°19'0 0.1
2017-Dec-31 17:59S 24°05' W 046°19'0 0.0
2017-Dec-31 17:26S 24°05' W 046°19'0 0.0
2017-Dec-31 16:56S 24°05' W 046°19'0 0.0
2017-Dec-31 16:29S 24°05' W 046°19'0 0.0
2017-Dec-31 15:59S 24°05' W 046°19'0 0.0
2017-Dec-31 15:08S 24°05' W 046°19'0 0.1
2017-Dec-31 14:56S 24°05' W 046°19'0 0.0
2017-Dec-31 14:26S 24°05' W 046°19'0 0.0
2017-Dec-31 13:59S 24°05' W 046°19'0 0.1
2017-Dec-31 13:29S 24°05' W 046°19'0 0.0
2017-Dec-31 12:59S 24°05' W 046°19'0 0.1
2017-Dec-31 12:26S 24°05' W 046°19'0 0.0
2017-Dec-31 11:56S 24°05' W 046°19'0 0.0
2017-Dec-31 11:26S 24°05' W 046°19'0 0.0
2017-Dec-31 10:56S 24°05' W 046°19'0 0.0
2017-Dec-31 10:20S 24°05' W 046°19'0 0.0
2017-Dec-31 09:53S 24°05' W 046°19'0 0.0
2017-Dec-31 09:20S 24°05' W 046°19'0 0.0
2017-Dec-31 08:56S 24°05' W 046°19'0 0.0
2017-Dec-31 08:26S 24°05' W 046°19'0 0.0
2017-Dec-31 07:59S 24°05' W 046°19'0 0.0
2017-Dec-31 07:26S 24°05' W 046°19'0 0.1
2017-Dec-31 06:56S 24°05' W 046°19'0 0.0
2017-Dec-31 06:17S 24°05' W 046°19'0 0.1
2017-Dec-31 05:53S 24°05' W 046°19'0 0.0
2017-Dec-31 05:20S 24°05' W 046°19'0 0.1
2017-Dec-31 04:56S 24°05' W 046°19'0 0.1
2017-Dec-31 04:26S 24°05' W 046°19'0 0.0
2017-Dec-31 03:56S 24°05' W 046°19'0 0.0
2017-Dec-31 03:29S 24°05' W 046°19'0 0.1
2017-Dec-31 02:59S 24°05' W 046°19'0 0.1
2017-Dec-31 02:26S 24°05' W 046°19'0 0.1
2017-Dec-31 01:59S 24°05' W 046°19'0 0.0
2017-Dec-31 01:26S 24°05' W 046°19'0 0.1
2017-Dec-31 00:56S 24°05' W 046°19'0 0.3
2017-Dec-31 00:29S 24°05' W 046°19'0 0.4
2017-Dec-30 23:56S 24°05' W 046°19'0 0.0
2017-Dec-30 23:20S 24°05' W 046°19'0 0.0
2017-Dec-30 22:56S 24°05' W 046°19'0 0.0
2017-Dec-30 22:20S 24°05' W 046°19'0 0.0
2017-Dec-30 21:38S 24°05' W 046°19'0 0.0
2017-Dec-30 21:23S 24°05' W 046°19'0 0.0
2017-Dec-30 20:56S 24°05' W 046°19'0 0.0
2017-Dec-30 20:29S 24°05' W 046°19'0 0.0
2017-Dec-30 19:35S 24°05' W 046°19'0 0.1
2017-Dec-30 19:23S 24°05' W 046°19'0 0.0
2017-Dec-30 18:59S 24°05' W 046°19'0 0.0
2017-Dec-30 18:08S 24°05' W 046°19'0 0.0
2017-Dec-30 17:59S 24°05' W 046°19'0 0.0
2017-Dec-30 17:29S 24°05' W 046°19'0 0.0
2017-Dec-30 16:56S 24°05' W 046°19'0 0.0
2017-Dec-30 16:26S 24°05' W 046°19'0 0.0
2017-Dec-30 15:59S 24°05' W 046°19'0 0.0
2017-Dec-30 15:26S 24°05' W 046°19'0 0.0
2017-Dec-30 14:59S 24°05' W 046°19'0 0.0
2017-Dec-30 14:26S 24°05' W 046°19'0 0.0
2017-Dec-30 13:59S 24°05' W 046°19'0 0.0
2017-Dec-30 13:26S 24°05' W 046°19'0 0.0
2017-Dec-30 12:53S 24°05' W 046°19'0 0.0
2017-Dec-30 12:26S 24°05' W 046°19'0 0.0
2017-Dec-30 11:56S 24°05' W 046°19'0 0.0
2017-Dec-30 10:41S 24°05' W 046°19'0 0.0
2017-Dec-30 10:26S 24°05' W 046°19'0 0.0
2017-Dec-30 09:56S 24°05' W 046°19'0 0.0
2017-Dec-30 09:26S 24°05' W 046°19'0 0.1
2017-Dec-30 08:56S 24°05' W 046°19'0 0.0
2017-Dec-30 08:29S 24°05' W 046°19'0 0.1
2017-Dec-30 07:56S 24°05' W 046°19'0 0.0
2017-Dec-30 07:26S 24°05' W 046°19'0 0.0
2017-Dec-30 06:56S 24°05' W 046°19'0 0.0
2017-Dec-30 06:26S 24°05' W 046°19'0 0.0
2017-Dec-30 05:56S 24°05' W 046°19'0 0.0
2017-Dec-30 05:26S 24°05' W 046°19'0 0.0
2017-Dec-30 04:50S 24°05' W 046°19'0 0.0
2017-Dec-30 04:29S 24°05' W 046°19'0 0.0
2017-Dec-30 03:50S 24°05' W 046°19'0 0.0
2017-Dec-30 03:26S 24°05' W 046°19'0 0.0
2017-Dec-30 02:59S 24°05' W 046°19'0 0.0
2017-Dec-30 02:26S 24°05' W 046°19'  
Track history (hours):
 
Tides and Currents Weather Stations Pressure Air Temp Water Temp Dewpoint Dewpoint Depression Visibility Wind Speed Wind Dir Waves Ship Positions

Silver Orla

Last reported at 2018-Jan-09 01:56 UTC. Time now 2018-Jan-23 19:45 UTC.
Position S 24°24' W 046°07'.
Warning: this ship's position is 14 days out of date.

Length 183 m; draft 8.2 m.

Type: Tanker. MMSI: 538005601.

Date/timePositionNaut miles runAvg speedWind from/ knotsBaromVisibWave heightAir tempDewpointWater temp
2018-Jan-09 01:56S 24°24' W 046°07'511.2
2018-Jan-09 01:30S 24°24' W 046°12'611.8
2018-Jan-09 01:00S 24°20' W 046°17'611.3
2018-Jan-09 00:30S 24°16' W 046°21'611.6
2018-Jan-09 00:00S 24°10' W 046°22'510.8
2018-Jan-08 23:30S 24°05' W 046°22'5 9.0
2018-Jan-08 23:00S 24°00' W 046°20'3 6.5
2018-Jan-08 22:30S 23°59' W 046°17'  
2018-Jan-03 03:17S 23°57' W 046°18'2 7.7
2018-Jan-03 03:00S 23°59' W 046°17'4 7.1
2018-Jan-03 02:30S 24°01' W 046°21'3 5.8
2018-Jan-03 02:00S 24°04' W 046°20'1 2.5
2018-Jan-03 01:26S 24°05' W 046°19'0 0.0
2018-Jan-03 00:56S 24°05' W 046°19'0 0.1
2018-Jan-03 00:26S 24°05' W 046°19'0 0.0
2018-Jan-02 23:47S 24°05' W 046°19'0 0.1
2018-Jan-02 23:29S 24°05' W 046°19'0 0.0
2018-Jan-02 22:59S 24°05' W 046°19'0 0.1
2018-Jan-02 22:26S 24°05' W 046°19'0 0.0
2018-Jan-02 21:53S 24°05' W 046°19'0 0.0
2018-Jan-02 21:26S 24°05' W 046°19'0 0.0
2018-Jan-02 20:56S 24°05' W 046°19'0 0.0
2018-Jan-02 20:20S 24°05' W 046°19'0 0.0
2018-Jan-02 19:56S 24°05' W 046°19'0 0.0
2018-Jan-02 19:29S 24°05' W 046°19'0 0.0
2018-Jan-02 18:50S 24°05' W 046°19'0 0.0
2018-Jan-02 18:26S 24°05' W 046°19'0 0.0
2018-Jan-02 17:59S 24°05' W 046°19'0 0.0
2018-Jan-02 17:29S 24°05' W 046°19'0 0.1
2018-Jan-02 16:47S 24°05' W 046°19'0 0.0
2018-Jan-02 16:29S 24°05' W 046°19'0 0.0
2018-Jan-02 15:56S 24°05' W 046°19'0 0.0
2018-Jan-02 15:26S 24°05' W 046°19'0 0.1
2018-Jan-02 14:56S 24°05' W 046°19'0 0.0
2018-Jan-02 14:26S 24°05' W 046°19'0 0.0
2018-Jan-02 13:50S 24°05' W 046°19'0 0.0
2018-Jan-02 13:29S 24°05' W 046°19'0 0.0
2018-Jan-02 12:53S 24°05' W 046°19'0 0.1
2018-Jan-02 12:26S 24°05' W 046°19'0 0.1
2018-Jan-02 11:59S 24°05' W 046°19'0 0.0
2018-Jan-02 11:26S 24°05' W 046°19'0 0.0
2018-Jan-02 10:53S 24°05' W 046°19'0 0.0
2018-Jan-02 10:26S 24°05' W 046°19'0 0.0
2018-Jan-02 09:59S 24°05' W 046°19'0 0.0
2018-Jan-02 09:29S 24°05' W 046°19'0 0.0
2018-Jan-02 08:26S 24°05' W 046°19'0 0.0
2018-Jan-02 07:59S 24°05' W 046°19'0 0.0
2018-Jan-02 07:26S 24°05' W 046°19'0 0.1
2018-Jan-02 06:53S 24°05' W 046°19'0 0.1
2018-Jan-02 06:26S 24°05' W 046°19'0 0.2
2018-Jan-02 05:59S 24°05' W 046°19'0 0.1
2018-Jan-02 05:26S 24°05' W 046°19'0 0.0
2018-Jan-02 04:26S 24°05' W 046°19'0 0.0
2018-Jan-02 03:56S 24°05' W 046°19'0 0.0
2018-Jan-02 03:26S 24°05' W 046°19'0 0.0
2018-Jan-02 02:50S 24°05' W 046°19'0 0.0
2018-Jan-02 02:26S 24°05' W 046°19'0 0.0
2018-Jan-02 01:59S 24°05' W 046°19'0 0.0
2018-Jan-02 01:29S 24°05' W 046°19'0 0.1
2018-Jan-02 00:56S 24°05' W 046°19'0 0.0
2018-Jan-02 00:26S 24°05' W 046°19'0 0.1
2018-Jan-01 23:56S 24°05' W 046°19'0 0.0
2018-Jan-01 23:29S 24°05' W 046°19'0 0.0
2018-Jan-01 22:56S 24°05' W 046°19'0 0.0
2018-Jan-01 22:26S 24°05' W 046°19'0 0.0
2018-Jan-01 21:50S 24°05' W 046°19'0 0.1
2018-Jan-01 21:26S 24°05' W 046°19'0 0.0
2018-Jan-01 20:50S 24°05' W 046°19'0 0.1
2018-Jan-01 20:26S 24°05' W 046°19'0 0.0
2018-Jan-01 19:56S 24°05' W 046°19'0 0.0
2018-Jan-01 19:26S 24°05' W 046°19'0 0.1
2018-Jan-01 18:50S 24°05' W 046°19'0 0.0
2018-Jan-01 18:20S 24°05' W 046°19'0 0.0
2018-Jan-01 17:59S 24°05' W 046°19'0 0.0
2018-Jan-01 17:26S 24°05' W 046°19'0 0.0
2018-Jan-01 14:44S 24°05' W 046°19'0 0.0
2018-Jan-01 14:26S 24°05' W 046°19'0 0.0
2018-Jan-01 13:56S 24°05' W 046°19'0 0.0
2018-Jan-01 13:29S 24°05' W 046°19'0 0.0
2018-Jan-01 12:59S 24°05' W 046°19'0 0.0
2018-Jan-01 11:59S 24°05' W 046°19'0 0.0
2018-Jan-01 11:26S 24°05' W 046°19'0 0.0
2018-Jan-01 10:56S 24°05' W 046°19'0 0.0
2018-Jan-01 10:26S 24°05' W 046°19'0 0.0
2018-Jan-01 09:56S 24°05' W 046°19'0 0.0
2018-Jan-01 09:29S 24°05' W 046°19'0 0.0
2018-Jan-01 08:29S 24°05' W 046°19'0 0.0
2018-Jan-01 07:56S 24°05' W 046°19'0 0.0
2018-Jan-01 07:23S 24°05' W 046°19'0 0.0
2018-Jan-01 06:59S 24°05' W 046°19'0 0.1
2018-Jan-01 05:59S 24°05' W 046°19'0 0.1
2018-Jan-01 05:26S 24°05' W 046°19'0 0.0
2018-Jan-01 04:56S 24°05' W 046°19'0 0.1
2018-Jan-01 03:50S 24°05' W 046°19'0 0.1
2018-Jan-01 03:29S 24°05' W 046°19'0 0.0
2018-Jan-01 02:56S 24°05' W 046°19'0 0.0
2018-Jan-01 02:26S 24°05' W 046°19'0 0.0
2018-Jan-01 01:59S 24°05' W 046°19'0 0.0
2018-Jan-01 01:26S 24°05' W 046°19'0 0.0
2018-Jan-01 00:26S 24°05' W 046°19'0 0.0
2017-Dec-31 20:59S 24°05' W 046°19'0 0.1
2017-Dec-31 20:26S 24°05' W 046°19'0 0.0
2017-Dec-31 19:47S 24°05' W 046°19'0 0.0
2017-Dec-31 19:29S 24°05' W 046°19'0 0.1
2017-Dec-31 18:56S 24°05' W 046°19'0 0.0
2017-Dec-31 18:26S 24°05' W 046°19'0 0.1
2017-Dec-31 17:59S 24°05' W 046°19'0 0.0
2017-Dec-31 17:26S 24°05' W 046°19'0 0.0
2017-Dec-31 16:56S 24°05' W 046°19'0 0.0
2017-Dec-31 16:29S 24°05' W 046°19'0 0.0
2017-Dec-31 15:59S 24°05' W 046°19'0 0.0
2017-Dec-31 15:08S 24°05' W 046°19'0 0.1
2017-Dec-31 14:56S 24°05' W 046°19'0 0.0
2017-Dec-31 14:26S 24°05' W 046°19'0 0.0
2017-Dec-31 13:59S 24°05' W 046°19'0 0.1
2017-Dec-31 13:29S 24°05' W 046°19'0 0.0
2017-Dec-31 12:59S 24°05' W 046°19'0 0.1
2017-Dec-31 12:26S 24°05' W 046°19'0 0.0
2017-Dec-31 11:56S 24°05' W 046°19'0 0.0
2017-Dec-31 11:26S 24°05' W 046°19'0 0.0
2017-Dec-31 10:56S 24°05' W 046°19'0 0.0
2017-Dec-31 10:20S 24°05' W 046°19'0 0.0
2017-Dec-31 09:53S 24°05' W 046°19'0 0.0
2017-Dec-31 09:20S 24°05' W 046°19'0 0.0
2017-Dec-31 08:56S 24°05' W 046°19'0 0.0
2017-Dec-31 08:26S 24°05' W 046°19'0 0.0
2017-Dec-31 07:59S 24°05' W 046°19'0 0.0
2017-Dec-31 07:26S 24°05' W 046°19'0 0.1
2017-Dec-31 06:56S 24°05' W 046°19'0 0.0
2017-Dec-31 06:17S 24°05' W 046°19'0 0.1
2017-Dec-31 05:53S 24°05' W 046°19'0 0.0
2017-Dec-31 05:20S 24°05' W 046°19'0 0.1
2017-Dec-31 04:56S 24°05' W 046°19'0 0.1
2017-Dec-31 04:26S 24°05' W 046°19'0 0.0
2017-Dec-31 03:56S 24°05' W 046°19'0 0.0
2017-Dec-31 03:29S 24°05' W 046°19'0 0.1
2017-Dec-31 02:59S 24°05' W 046°19'0 0.1
2017-Dec-31 02:26S 24°05' W 046°19'0 0.1
2017-Dec-31 01:59S 24°05' W 046°19'0 0.0
2017-Dec-31 01:26S 24°05' W 046°19'0 0.1
2017-Dec-31 00:56S 24°05' W 046°19'0 0.3
2017-Dec-31 00:29S 24°05' W 046°19'0 0.4
2017-Dec-30 23:56S 24°05' W 046°19'0 0.0
2017-Dec-30 23:20S 24°05' W 046°19'0 0.0
2017-Dec-30 22:56S 24°05' W 046°19'0 0.0
2017-Dec-30 22:20S 24°05' W 046°19'0 0.0
2017-Dec-30 21:38S 24°05' W 046°19'0 0.0
2017-Dec-30 21:23S 24°05' W 046°19'0 0.0
2017-Dec-30 20:56S 24°05' W 046°19'0 0.0
2017-Dec-30 20:29S 24°05' W 046°19'0 0.0
2017-Dec-30 19:35S 24°05' W 046°19'0 0.1
2017-Dec-30 19:23S 24°05' W 046°19'0 0.0
2017-Dec-30 18:59S 24°05' W 046°19'0 0.0
2017-Dec-30 18:08S 24°05' W 046°19'0 0.0
2017-Dec-30 17:59S 24°05' W 046°19'0 0.0
2017-Dec-30 17:29S 24°05' W 046°19'0 0.0
2017-Dec-30 16:56S 24°05' W 046°19'0 0.0
2017-Dec-30 16:26S 24°05' W 046°19'0 0.0
2017-Dec-30 15:59S 24°05' W 046°19'0 0.0
2017-Dec-30 15:26S 24°05' W 046°19'0 0.0
2017-Dec-30 14:59S 24°05' W 046°19'0 0.0
2017-Dec-30 14:26S 24°05' W 046°19'0 0.0
2017-Dec-30 13:59S 24°05' W 046°19'0 0.0
2017-Dec-30 13:26S 24°05' W 046°19'0 0.0
2017-Dec-30 12:53S 24°05' W 046°19'0 0.0
2017-Dec-30 12:26S 24°05' W 046°19'0 0.0
2017-Dec-30 11:56S 24°05' W 046°19'0 0.0
2017-Dec-30 10:41S 24°05' W 046°19'0 0.0
2017-Dec-30 10:26S 24°05' W 046°19'0 0.0
2017-Dec-30 09:56S 24°05' W 046°19'0 0.0
2017-Dec-30 09:26S 24°05' W 046°19'0 0.1
2017-Dec-30 08:56S 24°05' W 046°19'0 0.0
2017-Dec-30 08:29S 24°05' W 046°19'0 0.1
2017-Dec-30 07:56S 24°05' W 046°19'0 0.0
2017-Dec-30 07:26S 24°05' W 046°19'0 0.0
2017-Dec-30 06:56S 24°05' W 046°19'0 0.0
2017-Dec-30 06:26S 24°05' W 046°19'0 0.0
2017-Dec-30 05:56S 24°05' W 046°19'0 0.0
2017-Dec-30 05:26S 24°05' W 046°19'0 0.0
2017-Dec-30 04:50S 24°05' W 046°19'0 0.0
2017-Dec-30 04:29S 24°05' W 046°19'0 0.0
2017-Dec-30 03:50S 24°05' W 046°19'0 0.0
2017-Dec-30 03:26S 24°05' W 046°19'0 0.0
2017-Dec-30 02:59S 24°05' W 046°19'0 0.0
2017-Dec-30 02:26S 24°05' W 046°19'  

Dump ship's entire track history